sensor_id;sensor_type;location;lat;lon;timestamp;P1;durP1;ratioP1;P2;durP2;ratioP2
71435;SDS011;59251;51.326;12.370;2022-08-06T00:02:04;5.50;;;1.80;;
71435;SDS011;59251;51.326;12.370;2022-08-06T00:04:30;8.03;;;1.97;;
71435;SDS011;59251;51.326;12.370;2022-08-06T00:06:55;5.87;;;1.60;;
71435;SDS011;59251;51.326;12.370;2022-08-06T00:09:21;5.78;;;1.90;;
71435;SDS011;59251;51.326;12.370;2022-08-06T00:11:46;6.23;;;1.53;;
71435;SDS011;59251;51.326;12.370;2022-08-06T00:14:12;6.30;;;1.63;;
71435;SDS011;59251;51.326;12.370;2022-08-06T00:16:37;4.77;;;1.40;;
71435;SDS011;59251;51.326;12.370;2022-08-06T00:19:04;5.65;;;1.40;;
71435;SDS011;59251;51.326;12.370;2022-08-06T00:21:30;5.73;;;1.50;;
71435;SDS011;59251;51.326;12.370;2022-08-06T00:23:55;7.43;;;1.65;;
71435;SDS011;59251;51.326;12.370;2022-08-06T00:26:21;5.03;;;1.33;;
71435;SDS011;59251;51.326;12.370;2022-08-06T00:28:47;4.70;;;1.10;;
71435;SDS011;59251;51.326;12.370;2022-08-06T00:31:13;5.00;;;1.10;;
71435;SDS011;59251;51.326;12.370;2022-08-06T00:33:39;5.03;;;1.20;;
71435;SDS011;59251;51.326;12.370;2022-08-06T00:36:06;8.25;;;1.08;;
71435;SDS011;59251;51.326;12.370;2022-08-06T00:38:32;5.53;;;1.30;;
71435;SDS011;59251;51.326;12.370;2022-08-06T00:40:57;5.57;;;0.73;;
71435;SDS011;59251;51.326;12.370;2022-08-06T00:43:23;4.10;;;0.80;;
71435;SDS011;59251;51.326;12.370;2022-08-06T00:45:49;5.20;;;0.77;;
71435;SDS011;59251;51.326;12.370;2022-08-06T00:48:14;6.27;;;0.93;;
71435;SDS011;59251;51.326;12.370;2022-08-06T00:50:39;6.03;;;0.70;;
71435;SDS011;59251;51.326;12.370;2022-08-06T00:53:05;4.20;;;0.70;;
71435;SDS011;59251;51.326;12.370;2022-08-06T00:55:30;4.43;;;0.70;;
71435;SDS011;59251;51.326;12.370;2022-08-06T00:57:56;5.70;;;0.70;;
71435;SDS011;59251;51.326;12.370;2022-08-06T01:00:22;4.30;;;0.67;;
71435;SDS011;59251;51.326;12.370;2022-08-06T01:02:47;4.65;;;0.80;;
71435;SDS011;59251;51.326;12.370;2022-08-06T01:05:13;4.07;;;0.60;;
71435;SDS011;59251;51.326;12.370;2022-08-06T01:07:38;4.93;;;0.97;;
71435;SDS011;59251;51.326;12.370;2022-08-06T01:10:04;4.70;;;0.70;;
71435;SDS011;59251;51.326;12.370;2022-08-06T01:12:29;3.93;;;0.50;;
71435;SDS011;59251;51.326;12.370;2022-08-06T01:14:55;6.72;;;0.82;;
71435;SDS011;59251;51.326;12.370;2022-08-06T01:17:37;6.03;;;0.80;;
71435;SDS011;59251;51.326;12.370;2022-08-06T01:31:13;4.97;;;0.70;;
71435;SDS011;59251;51.326;12.370;2022-08-06T01:33:46;3.75;;;0.60;;
71435;SDS011;59251;51.326;12.370;2022-08-06T01:36:36;3.63;;;0.50;;
71435;SDS011;59251;51.326;12.370;2022-08-06T01:39:05;6.50;;;0.67;;
71435;SDS011;59251;51.326;12.370;2022-08-06T01:41:38;3.78;;;0.60;;
71435;SDS011;59251;51.326;12.370;2022-08-06T01:44:15;4.18;;;0.50;;
71435;SDS011;59251;51.326;12.370;2022-08-06T01:46:43;4.35;;;0.50;;
71435;SDS011;59251;51.326;12.370;2022-08-06T01:49:12;4.88;;;0.73;;
71435;SDS011;59251;51.326;12.370;2022-08-06T01:51:40;6.40;;;1.20;;
71435;SDS011;59251;51.326;12.370;2022-08-06T01:54:08;4.25;;;0.60;;
71435;SDS011;59251;51.326;12.370;2022-08-06T01:56:36;4.60;;;0.60;;
71435;SDS011;59251;51.326;12.370;2022-08-06T01:59:04;4.47;;;0.45;;
71435;SDS011;59251;51.326;12.370;2022-08-06T02:01:32;4.53;;;0.60;;
71435;SDS011;59251;51.326;12.370;2022-08-06T02:04:00;3.57;;;0.40;;
71435;SDS011;59251;51.326;12.370;2022-08-06T02:06:28;3.80;;;0.60;;
71435;SDS011;59251;51.326;12.370;2022-08-06T02:08:57;4.03;;;0.70;;
71435;SDS011;59251;51.326;12.370;2022-08-06T02:11:25;3.85;;;0.38;;
71435;SDS011;59251;51.326;12.370;2022-08-06T02:13:51;3.13;;;0.40;;
71435;SDS011;59251;51.326;12.370;2022-08-06T02:16:19;4.35;;;0.50;;
71435;SDS011;59251;51.326;12.370;2022-08-06T02:18:47;3.95;;;0.50;;
71435;SDS011;59251;51.326;12.370;2022-08-06T02:21:17;5.60;;;0.57;;
71435;SDS011;59251;51.326;12.370;2022-08-06T02:23:45;5.75;;;0.70;;
71435;SDS011;59251;51.326;12.370;2022-08-06T02:26:13;4.28;;;0.60;;
71435;SDS011;59251;51.326;12.370;2022-08-06T02:28:40;6.72;;;0.60;;
71435;SDS011;59251;51.326;12.370;2022-08-06T02:31:07;4.20;;;0.50;;
71435;SDS011;59251;51.326;12.370;2022-08-06T02:33:33;4.40;;;0.50;;
71435;SDS011;59251;51.326;12.370;2022-08-06T02:36:14;4.47;;;0.50;;
71435;SDS011;59251;51.326;12.370;2022-08-06T02:38:58;5.37;;;0.90;;
71435;SDS011;59251;51.326;12.370;2022-08-06T02:41:32;5.03;;;0.68;;
71435;SDS011;59251;51.326;12.370;2022-08-06T02:46:45;5.13;;;0.60;;
71435;SDS011;59251;51.326;12.370;2022-08-06T02:49:18;6.15;;;0.77;;
71435;SDS011;59251;51.326;12.370;2022-08-06T02:51:54;5.15;;;0.73;;
71435;SDS011;59251;51.326;12.370;2022-08-06T02:54:26;5.35;;;0.75;;
71435;SDS011;59251;51.326;12.370;2022-08-06T02:57:00;4.55;;;0.98;;
71435;SDS011;59251;51.326;12.370;2022-08-06T02:59:31;4.93;;;0.90;;
71435;SDS011;59251;51.326;12.370;2022-08-06T03:02:00;5.53;;;0.90;;
71435;SDS011;59251;51.326;12.370;2022-08-06T03:04:28;5.93;;;0.93;;
71435;SDS011;59251;51.326;12.370;2022-08-06T03:06:58;4.78;;;0.80;;
71435;SDS011;59251;51.326;12.370;2022-08-06T03:09:28;4.20;;;0.80;;
71435;SDS011;59251;51.326;12.370;2022-08-06T03:11:54;3.80;;;0.73;;
71435;SDS011;59251;51.326;12.370;2022-08-06T03:14:21;4.65;;;0.70;;
71435;SDS011;59251;51.326;12.370;2022-08-06T03:16:49;5.20;;;0.95;;
71435;SDS011;59251;51.326;12.370;2022-08-06T03:19:17;4.80;;;0.90;;
71435;SDS011;59251;51.326;12.370;2022-08-06T03:21:44;6.90;;;0.90;;
71435;SDS011;59251;51.326;12.370;2022-08-06T03:24:11;6.22;;;0.88;;
71435;SDS011;59251;51.326;12.370;2022-08-06T03:26:37;5.78;;;0.88;;
71435;SDS011;59251;51.326;12.370;2022-08-06T03:29:05;4.82;;;0.93;;
71435;SDS011;59251;51.326;12.370;2022-08-06T03:31:32;5.15;;;1.00;;
71435;SDS011;59251;51.326;12.370;2022-08-06T03:33:57;4.22;;;0.63;;
71435;SDS011;59251;51.326;12.370;2022-08-06T03:36:24;6.07;;;0.90;;
71435;SDS011;59251;51.326;12.370;2022-08-06T03:38:53;4.47;;;0.85;;
71435;SDS011;59251;51.326;12.370;2022-08-06T03:41:21;4.72;;;0.88;;
71435;SDS011;59251;51.326;12.370;2022-08-06T03:43:48;4.38;;;0.73;;
71435;SDS011;59251;51.326;12.370;2022-08-06T03:46:15;6.37;;;0.90;;
71435;SDS011;59251;51.326;12.370;2022-08-06T03:48:44;5.68;;;0.88;;
71435;SDS011;59251;51.326;12.370;2022-08-06T03:51:11;5.15;;;0.80;;
71435;SDS011;59251;51.326;12.370;2022-08-06T03:53:39;5.30;;;0.82;;
71435;SDS011;59251;51.326;12.370;2022-08-06T03:56:07;5.05;;;0.63;;
71435;SDS011;59251;51.326;12.370;2022-08-06T03:58:35;4.47;;;0.70;;
71435;SDS011;59251;51.326;12.370;2022-08-06T04:01:03;4.75;;;0.70;;
71435;SDS011;59251;51.326;12.370;2022-08-06T04:03:31;5.90;;;0.90;;
71435;SDS011;59251;51.326;12.370;2022-08-06T04:05:59;3.70;;;0.65;;
71435;SDS011;59251;51.326;12.370;2022-08-06T04:08:25;5.00;;;0.65;;
71435;SDS011;59251;51.326;12.370;2022-08-06T04:10:51;3.92;;;0.60;;
71435;SDS011;59251;51.326;12.370;2022-08-06T04:13:17;5.17;;;0.70;;
71435;SDS011;59251;51.326;12.370;2022-08-06T04:15:49;4.28;;;0.70;;
71435;SDS011;59251;51.326;12.370;2022-08-06T04:18:17;3.97;;;0.70;;
71435;SDS011;59251;51.326;12.370;2022-08-06T04:20:47;5.40;;;0.60;;
71435;SDS011;59251;51.326;12.370;2022-08-06T04:23:15;5.10;;;0.90;;
71435;SDS011;59251;51.326;12.370;2022-08-06T04:25:44;5.32;;;0.80;;
71435;SDS011;59251;51.326;12.370;2022-08-06T04:28:14;6.22;;;0.90;;
71435;SDS011;59251;51.326;12.370;2022-08-06T04:30:41;5.70;;;0.85;;
71435;SDS011;59251;51.326;12.370;2022-08-06T04:33:10;5.97;;;0.80;;
71435;SDS011;59251;51.326;12.370;2022-08-06T04:35:39;5.13;;;0.88;;
71435;SDS011;59251;51.326;12.370;2022-08-06T04:38:05;6.05;;;1.00;;
71435;SDS011;59251;51.326;12.370;2022-08-06T04:40:31;5.05;;;1.10;;
71435;SDS011;59251;51.326;12.370;2022-08-06T04:42:57;6.30;;;1.07;;
71435;SDS011;59251;51.326;12.370;2022-08-06T04:45:23;4.68;;;0.93;;
71435;SDS011;59251;51.326;12.370;2022-08-06T04:47:53;5.45;;;1.20;;
71435;SDS011;59251;51.326;12.370;2022-08-06T04:50:19;7.10;;;1.00;;
71435;SDS011;59251;51.326;12.370;2022-08-06T04:52:45;5.50;;;0.90;;
71435;SDS011;59251;51.326;12.370;2022-08-06T04:55:10;9.67;;;3.57;;
71435;SDS011;59251;51.326;12.370;2022-08-06T04:57:36;5.57;;;1.20;;
71435;SDS011;59251;51.326;12.370;2022-08-06T05:00:02;7.70;;;1.30;;
71435;SDS011;59251;51.326;12.370;2022-08-06T05:02:28;5.55;;;0.95;;
71435;SDS011;59251;51.326;12.370;2022-08-06T05:04:53;5.13;;;1.13;;
71435;SDS011;59251;51.326;12.370;2022-08-06T05:07:25;5.78;;;1.17;;
71435;SDS011;59251;51.326;12.370;2022-08-06T05:09:54;6.55;;;1.02;;
71435;SDS011;59251;51.326;12.370;2022-08-06T05:15:06;7.32;;;1.20;;
71435;SDS011;59251;51.326;12.370;2022-08-06T05:17:44;6.45;;;0.98;;
71435;SDS011;59251;51.326;12.370;2022-08-06T05:20:19;5.68;;;1.00;;
71435;SDS011;59251;51.326;12.370;2022-08-06T05:22:47;6.72;;;1.20;;
71435;SDS011;59251;51.326;12.370;2022-08-06T05:25:17;5.20;;;1.40;;
71435;SDS011;59251;51.326;12.370;2022-08-06T05:27:43;6.22;;;1.10;;
71435;SDS011;59251;51.326;12.370;2022-08-06T05:30:09;5.77;;;1.20;;
71435;SDS011;59251;51.326;12.370;2022-08-06T05:32:41;7.25;;;1.05;;
71435;SDS011;59251;51.326;12.370;2022-08-06T05:35:10;5.30;;;0.85;;
71435;SDS011;59251;51.326;12.370;2022-08-06T05:37:36;4.60;;;1.10;;
71435;SDS011;59251;51.326;12.370;2022-08-06T05:40:02;6.18;;;0.90;;
71435;SDS011;59251;51.326;12.370;2022-08-06T05:42:29;5.80;;;1.00;;
71435;SDS011;59251;51.326;12.370;2022-08-06T05:44:54;6.53;;;0.90;;
71435;SDS011;59251;51.326;12.370;2022-08-06T05:47:20;5.23;;;0.93;;
71435;SDS011;59251;51.326;12.370;2022-08-06T05:49:49;4.70;;;0.80;;
71435;SDS011;59251;51.326;12.370;2022-08-06T05:52:55;5.70;;;0.65;;
71435;SDS011;59251;51.326;12.370;2022-08-06T05:55:27;6.28;;;0.90;;
71435;SDS011;59251;51.326;12.370;2022-08-06T05:58:11;7.53;;;1.27;;
71435;SDS011;59251;51.326;12.370;2022-08-06T06:00:39;4.72;;;0.80;;
71435;SDS011;59251;51.326;12.370;2022-08-06T06:03:06;6.60;;;0.95;;
71435;SDS011;59251;51.326;12.370;2022-08-06T06:05:34;5.30;;;0.90;;
71435;SDS011;59251;51.326;12.370;2022-08-06T06:08:01;5.38;;;0.90;;
71435;SDS011;59251;51.326;12.370;2022-08-06T06:10:27;7.73;;;1.00;;
71435;SDS011;59251;51.326;12.370;2022-08-06T06:12:54;5.43;;;0.70;;
71435;SDS011;59251;51.326;12.370;2022-08-06T06:15:20;5.47;;;0.73;;
71435;SDS011;59251;51.326;12.370;2022-08-06T06:31:28;5.88;;;0.80;;
71435;SDS011;59251;51.326;12.370;2022-08-06T06:34:08;5.72;;;1.15;;
71435;SDS011;59251;51.326;12.370;2022-08-06T06:36:44;4.60;;;0.60;;
71435;SDS011;59251;51.326;12.370;2022-08-06T06:39:28;4.22;;;0.60;;
71435;SDS011;59251;51.326;12.370;2022-08-06T06:42:09;4.33;;;0.60;;
71435;SDS011;59251;51.326;12.370;2022-08-06T06:47:31;5.07;;;0.68;;
71435;SDS011;59251;51.326;12.370;2022-08-06T06:50:18;4.15;;;0.60;;
71435;SDS011;59251;51.326;12.370;2022-08-06T06:52:51;5.00;;;0.75;;
71435;SDS011;59251;51.326;12.370;2022-08-06T06:57:48;6.65;;;0.70;;
71435;SDS011;59251;51.326;12.370;2022-08-06T07:00:16;4.60;;;0.40;;
71435;SDS011;59251;51.326;12.370;2022-08-06T07:02:43;3.88;;;0.50;;
71435;SDS011;59251;51.326;12.370;2022-08-06T07:05:11;5.20;;;0.53;;
71435;SDS011;59251;51.326;12.370;2022-08-06T07:07:39;4.40;;;0.50;;
71435;SDS011;59251;51.326;12.370;2022-08-06T07:10:06;3.83;;;0.50;;
71435;SDS011;59251;51.326;12.370;2022-08-06T07:12:34;4.05;;;0.50;;
71435;SDS011;59251;51.326;12.370;2022-08-06T07:15:01;4.75;;;0.50;;
71435;SDS011;59251;51.326;12.370;2022-08-06T07:17:29;4.93;;;0.57;;
71435;SDS011;59251;51.326;12.370;2022-08-06T07:19:57;5.10;;;0.40;;
71435;SDS011;59251;51.326;12.370;2022-08-06T07:22:26;5.82;;;0.70;;
71435;SDS011;59251;51.326;12.370;2022-08-06T07:24:57;4.55;;;0.45;;
71435;SDS011;59251;51.326;12.370;2022-08-06T07:27:32;5.28;;;0.50;;
71435;SDS011;59251;51.326;12.370;2022-08-06T07:30:00;4.63;;;0.50;;
71435;SDS011;59251;51.326;12.370;2022-08-06T07:32:27;5.07;;;0.40;;
71435;SDS011;59251;51.326;12.370;2022-08-06T07:34:54;5.90;;;0.60;;
71435;SDS011;59251;51.326;12.370;2022-08-06T07:37:20;4.35;;;0.40;;
71435;SDS011;59251;51.326;12.370;2022-08-06T07:39:46;4.57;;;0.57;;
71435;SDS011;59251;51.326;12.370;2022-08-06T07:42:15;6.18;;;0.50;;
71435;SDS011;59251;51.326;12.370;2022-08-06T07:44:43;4.32;;;0.60;;
71435;SDS011;59251;51.326;12.370;2022-08-06T07:47:18;3.85;;;0.40;;
71435;SDS011;59251;51.326;12.370;2022-08-06T07:49:49;3.15;;;0.40;;
71435;SDS011;59251;51.326;12.370;2022-08-06T07:52:17;3.07;;;0.40;;
71435;SDS011;59251;51.326;12.370;2022-08-06T07:54:43;5.10;;;0.57;;
71435;SDS011;59251;51.326;12.370;2022-08-06T07:57:09;3.15;;;0.40;;
71435;SDS011;59251;51.326;12.370;2022-08-06T07:59:35;3.15;;;0.50;;
71435;SDS011;59251;51.326;12.370;2022-08-06T08:02:02;2.17;;;0.30;;
71435;SDS011;59251;51.326;12.370;2022-08-06T08:04:29;4.53;;;0.35;;
71435;SDS011;59251;51.326;12.370;2022-08-06T08:07:13;4.63;;;0.45;;
71435;SDS011;59251;51.326;12.370;2022-08-06T08:09:41;4.15;;;0.40;;
71435;SDS011;59251;51.326;12.370;2022-08-06T08:12:07;3.53;;;0.47;;
71435;SDS011;59251;51.326;12.370;2022-08-06T08:14:36;4.63;;;0.40;;
71435;SDS011;59251;51.326;12.370;2022-08-06T08:17:04;8.27;;;0.70;;
71435;SDS011;59251;51.326;12.370;2022-08-06T08:19:30;3.53;;;0.60;;
71435;SDS011;59251;51.326;12.370;2022-08-06T08:22:19;6.45;;;0.50;;
71435;SDS011;59251;51.326;12.370;2022-08-06T08:24:45;3.63;;;0.50;;
71435;SDS011;59251;51.326;12.370;2022-08-06T08:27:13;6.28;;;0.50;;
71435;SDS011;59251;51.326;12.370;2022-08-06T08:29:40;3.28;;;0.43;;
71435;SDS011;59251;51.326;12.370;2022-08-06T08:32:07;6.77;;;0.60;;
71435;SDS011;59251;51.326;12.370;2022-08-06T08:34:33;4.38;;;0.50;;
71435;SDS011;59251;51.326;12.370;2022-08-06T08:37:00;6.35;;;0.70;;
71435;SDS011;59251;51.326;12.370;2022-08-06T08:39:26;3.90;;;0.50;;
71435;SDS011;59251;51.326;12.370;2022-08-06T08:41:58;5.00;;;0.50;;
71435;SDS011;59251;51.326;12.370;2022-08-06T08:44:31;3.53;;;0.40;;
71435;SDS011;59251;51.326;12.370;2022-08-06T08:46:58;5.57;;;0.60;;
71435;SDS011;59251;51.326;12.370;2022-08-06T08:49:28;4.00;;;0.60;;
71435;SDS011;59251;51.326;12.370;2022-08-06T08:52:12;4.18;;;0.40;;
71435;SDS011;59251;51.326;12.370;2022-08-06T08:54:41;6.97;;;0.60;;
71435;SDS011;59251;51.326;12.370;2022-08-06T08:57:09;7.37;;;0.80;;
71435;SDS011;59251;51.326;12.370;2022-08-06T08:59:35;3.03;;;0.40;;
71435;SDS011;59251;51.326;12.370;2022-08-06T09:02:01;4.78;;;0.50;;
71435;SDS011;59251;51.326;12.370;2022-08-06T09:04:30;3.37;;;0.57;;
71435;SDS011;59251;51.326;12.370;2022-08-06T09:06:56;3.50;;;0.40;;
71435;SDS011;59251;51.326;12.370;2022-08-06T09:09:23;3.83;;;0.40;;
71435;SDS011;59251;51.326;12.370;2022-08-06T09:11:49;4.85;;;0.40;;
71435;SDS011;59251;51.326;12.370;2022-08-06T09:14:14;3.50;;;0.33;;
71435;SDS011;59251;51.326;12.370;2022-08-06T09:16:40;2.17;;;0.30;;
71435;SDS011;59251;51.326;12.370;2022-08-06T09:19:05;4.07;;;0.40;;
71435;SDS011;59251;51.326;12.370;2022-08-06T09:21:32;5.43;;;0.60;;
71435;SDS011;59251;51.326;12.370;2022-08-06T09:23:58;3.42;;;0.50;;
71435;SDS011;59251;51.326;12.370;2022-08-06T09:26:24;5.13;;;0.80;;
71435;SDS011;59251;51.326;12.370;2022-08-06T09:28:49;3.78;;;0.50;;
71435;SDS011;59251;51.326;12.370;2022-08-06T09:31:15;3.13;;;0.70;;
71435;SDS011;59251;51.326;12.370;2022-08-06T09:33:51;3.15;;;0.45;;
71435;SDS011;59251;51.326;12.370;2022-08-06T09:36:20;6.10;;;0.75;;
71435;SDS011;59251;51.326;12.370;2022-08-06T09:38:51;2.70;;;0.30;;
71435;SDS011;59251;51.326;12.370;2022-08-06T09:41:19;2.75;;;0.30;;
71435;SDS011;59251;51.326;12.370;2022-08-06T09:43:46;4.53;;;0.87;;
71435;SDS011;59251;51.326;12.370;2022-08-06T09:46:14;4.20;;;0.55;;
71435;SDS011;59251;51.326;12.370;2022-08-06T09:48:58;4.50;;;0.60;;
71435;SDS011;59251;51.326;12.370;2022-08-06T09:51:26;7.65;;;1.27;;
71435;SDS011;59251;51.326;12.370;2022-08-06T09:53:56;3.90;;;0.30;;
71435;SDS011;59251;51.326;12.370;2022-08-06T09:56:23;5.10;;;0.50;;
71435;SDS011;59251;51.326;12.370;2022-08-06T09:58:49;3.85;;;0.40;;
71435;SDS011;59251;51.326;12.370;2022-08-06T10:01:21;2.65;;;0.40;;
71435;SDS011;59251;51.326;12.370;2022-08-06T10:03:48;3.80;;;0.70;;
71435;SDS011;59251;51.326;12.370;2022-08-06T10:06:15;4.37;;;0.43;;
71435;SDS011;59251;51.326;12.370;2022-08-06T10:08:45;2.00;;;0.38;;
71435;SDS011;59251;51.326;12.370;2022-08-06T10:11:12;4.45;;;0.40;;
71435;SDS011;59251;51.326;12.370;2022-08-06T10:13:37;4.03;;;0.43;;
71435;SDS011;59251;51.326;12.370;2022-08-06T10:16:20;4.13;;;0.38;;
71435;SDS011;59251;51.326;12.370;2022-08-06T10:18:56;2.80;;;0.30;;
71435;SDS011;59251;51.326;12.370;2022-08-06T10:21:27;2.37;;;0.37;;
71435;SDS011;59251;51.326;12.370;2022-08-06T10:23:55;3.63;;;0.38;;
71435;SDS011;59251;51.326;12.370;2022-08-06T10:26:27;3.92;;;0.60;;
71435;SDS011;59251;51.326;12.370;2022-08-06T10:28:54;4.45;;;0.50;;
71435;SDS011;59251;51.326;12.370;2022-08-06T10:31:20;3.20;;;0.40;;
71435;SDS011;59251;51.326;12.370;2022-08-06T10:36:22;3.15;;;0.38;;
71435;SDS011;59251;51.326;12.370;2022-08-06T10:38:52;3.90;;;0.38;;
71435;SDS011;59251;51.326;12.370;2022-08-06T10:41:20;3.13;;;0.35;;
71435;SDS011;59251;51.326;12.370;2022-08-06T10:43:46;3.80;;;0.40;;
71435;SDS011;59251;51.326;12.370;2022-08-06T10:46:13;2.85;;;0.30;;
71435;SDS011;59251;51.326;12.370;2022-08-06T10:48:41;4.63;;;0.60;;
71435;SDS011;59251;51.326;12.370;2022-08-06T10:51:08;3.80;;;0.40;;
71435;SDS011;59251;51.326;12.370;2022-08-06T10:53:35;4.00;;;0.40;;
71435;SDS011;59251;51.326;12.370;2022-08-06T10:56:05;3.93;;;0.40;;
71435;SDS011;59251;51.326;12.370;2022-08-06T10:58:33;3.35;;;0.32;;
71435;SDS011;59251;51.326;12.370;2022-08-06T11:00:59;3.38;;;0.40;;
71435;SDS011;59251;51.326;12.370;2022-08-06T11:03:29;4.80;;;0.43;;
71435;SDS011;59251;51.326;12.370;2022-08-06T11:14:45;3.78;;;0.40;;
71435;SDS011;59251;51.326;12.370;2022-08-06T11:17:11;4.07;;;0.50;;
71435;SDS011;59251;51.326;12.370;2022-08-06T11:19:47;5.00;;;0.50;;
71435;SDS011;59251;51.326;12.370;2022-08-06T11:24:59;3.10;;;0.35;;
71435;SDS011;59251;51.326;12.370;2022-08-06T11:30:17;5.18;;;0.50;;
71435;SDS011;59251;51.326;12.370;2022-08-06T11:32:45;4.07;;;0.57;;
71435;SDS011;59251;51.326;12.370;2022-08-06T11:38:00;3.15;;;0.35;;
71435;SDS011;59251;51.326;12.370;2022-08-06T11:46:16;2.45;;;0.30;;
71435;SDS011;59251;51.326;12.370;2022-08-06T11:49:08;1.77;;;0.20;;
71435;SDS011;59251;51.326;12.370;2022-08-06T12:02:15;4.87;;;0.40;;
71435;SDS011;59251;51.326;12.370;2022-08-06T12:05:01;3.38;;;0.40;;
71435;SDS011;59251;51.326;12.370;2022-08-06T12:07:28;3.15;;;0.40;;
71435;SDS011;59251;51.326;12.370;2022-08-06T12:15:02;3.55;;;0.38;;
71435;SDS011;59251;51.326;12.370;2022-08-06T12:17:37;3.55;;;0.60;;
71435;SDS011;59251;51.326;12.370;2022-08-06T12:20:03;3.70;;;0.40;;
71435;SDS011;59251;51.326;12.370;2022-08-06T12:22:33;4.05;;;0.43;;
71435;SDS011;59251;51.326;12.370;2022-08-06T12:25:04;4.00;;;0.50;;
71435;SDS011;59251;51.326;12.370;2022-08-06T12:27:32;4.35;;;0.50;;
71435;SDS011;59251;51.326;12.370;2022-08-06T12:29:59;3.05;;;0.32;;
71435;SDS011;59251;51.326;12.370;2022-08-06T12:32:33;3.20;;;0.32;;
71435;SDS011;59251;51.326;12.370;2022-08-06T12:35:00;3.70;;;0.45;;
71435;SDS011;59251;51.326;12.370;2022-08-06T12:37:34;5.73;;;0.60;;
71435;SDS011;59251;51.326;12.370;2022-08-06T12:40:02;3.30;;;0.40;;
71435;SDS011;59251;51.326;12.370;2022-08-06T12:42:52;2.72;;;0.50;;
71435;SDS011;59251;51.326;12.370;2022-08-06T12:45:29;3.72;;;0.60;;
71435;SDS011;59251;51.326;12.370;2022-08-06T12:47:56;3.00;;;0.50;;
71435;SDS011;59251;51.326;12.370;2022-08-06T12:50:24;3.77;;;0.50;;
71435;SDS011;59251;51.326;12.370;2022-08-06T12:55:35;2.47;;;0.25;;
71435;SDS011;59251;51.326;12.370;2022-08-06T12:58:06;2.50;;;0.30;;
71435;SDS011;59251;51.326;12.370;2022-08-06T13:00:32;3.75;;;0.30;;
71435;SDS011;59251;51.326;12.370;2022-08-06T13:02:58;3.43;;;0.50;;
71435;SDS011;59251;51.326;12.370;2022-08-06T13:05:24;3.25;;;0.35;;
71435;SDS011;59251;51.326;12.370;2022-08-06T13:07:53;4.35;;;0.60;;
71435;SDS011;59251;51.326;12.370;2022-08-06T13:10:20;4.90;;;0.60;;
71435;SDS011;59251;51.326;12.370;2022-08-06T13:12:52;5.07;;;0.73;;
71435;SDS011;59251;51.326;12.370;2022-08-06T13:15:22;3.33;;;0.50;;
71435;SDS011;59251;51.326;12.370;2022-08-06T13:20:39;4.00;;;0.63;;
71435;SDS011;59251;51.326;12.370;2022-08-06T13:23:07;5.05;;;0.60;;
71435;SDS011;59251;51.326;12.370;2022-08-06T13:25:41;6.05;;;0.63;;
71435;SDS011;59251;51.326;12.370;2022-08-06T13:28:14;4.22;;;0.50;;
71435;SDS011;59251;51.326;12.370;2022-08-06T13:30:42;3.00;;;0.30;;
71435;SDS011;59251;51.326;12.370;2022-08-06T13:33:12;4.20;;;0.60;;
71435;SDS011;59251;51.326;12.370;2022-08-06T13:35:42;4.22;;;0.60;;
71435;SDS011;59251;51.326;12.370;2022-08-06T13:38:11;2.65;;;0.40;;
71435;SDS011;59251;51.326;12.370;2022-08-06T13:40:46;5.13;;;0.60;;
71435;SDS011;59251;51.326;12.370;2022-08-06T13:43:13;3.20;;;0.50;;
71435;SDS011;59251;51.326;12.370;2022-08-06T13:45:39;3.83;;;0.50;;
71435;SDS011;59251;51.326;12.370;2022-08-06T13:48:06;3.38;;;0.50;;
71435;SDS011;59251;51.326;12.370;2022-08-06T13:50:44;3.77;;;0.40;;
71435;SDS011;59251;51.326;12.370;2022-08-06T13:53:10;3.20;;;0.40;;
71435;SDS011;59251;51.326;12.370;2022-08-06T13:55:37;3.45;;;0.65;;
71435;SDS011;59251;51.326;12.370;2022-08-06T13:58:06;3.28;;;0.45;;
71435;SDS011;59251;51.326;12.370;2022-08-06T14:00:32;3.63;;;0.70;;
71435;SDS011;59251;51.326;12.370;2022-08-06T14:02:57;4.87;;;0.70;;
71435;SDS011;59251;51.326;12.370;2022-08-06T14:05:23;5.13;;;0.60;;
71435;SDS011;59251;51.326;12.370;2022-08-06T14:07:49;4.60;;;0.67;;
71435;SDS011;59251;51.326;12.370;2022-08-06T14:10:15;2.80;;;0.40;;
71435;SDS011;59251;51.326;12.370;2022-08-06T14:12:42;5.50;;;0.80;;
71435;SDS011;59251;51.326;12.370;2022-08-06T14:15:08;3.50;;;0.60;;
71435;SDS011;59251;51.326;12.370;2022-08-06T14:17:34;3.47;;;0.45;;
71435;SDS011;59251;51.326;12.370;2022-08-06T14:19:59;3.60;;;0.60;;
71435;SDS011;59251;51.326;12.370;2022-08-06T14:22:25;3.75;;;0.60;;
71435;SDS011;59251;51.326;12.370;2022-08-06T14:24:50;3.10;;;0.50;;
71435;SDS011;59251;51.326;12.370;2022-08-06T14:27:16;4.20;;;0.80;;
71435;SDS011;59251;51.326;12.370;2022-08-06T14:29:41;3.70;;;0.53;;
71435;SDS011;59251;51.326;12.370;2022-08-06T14:32:07;3.85;;;0.60;;
71435;SDS011;59251;51.326;12.370;2022-08-06T14:34:32;4.03;;;0.60;;
71435;SDS011;59251;51.326;12.370;2022-08-06T14:36:58;3.90;;;0.60;;
71435;SDS011;59251;51.326;12.370;2022-08-06T14:39:23;3.60;;;0.50;;
71435;SDS011;59251;51.326;12.370;2022-08-06T14:41:49;3.17;;;0.43;;
71435;SDS011;59251;51.326;12.370;2022-08-06T14:44:33;6.15;;;0.70;;
71435;SDS011;59251;51.326;12.370;2022-08-06T14:47:17;3.95;;;0.50;;
71435;SDS011;59251;51.326;12.370;2022-08-06T14:49:43;4.27;;;0.53;;
71435;SDS011;59251;51.326;12.370;2022-08-06T14:52:09;3.80;;;0.50;;
71435;SDS011;59251;51.326;12.370;2022-08-06T14:54:35;4.30;;;0.60;;
71435;SDS011;59251;51.326;12.370;2022-08-06T14:57:02;5.30;;;0.60;;
71435;SDS011;59251;51.326;12.370;2022-08-06T14:59:29;4.00;;;0.70;;
71435;SDS011;59251;51.326;12.370;2022-08-06T15:01:54;3.35;;;0.70;;
71435;SDS011;59251;51.326;12.370;2022-08-06T15:04:20;4.83;;;0.60;;
71435;SDS011;59251;51.326;12.370;2022-08-06T15:06:46;4.88;;;0.75;;
71435;SDS011;59251;51.326;12.370;2022-08-06T15:09:12;4.30;;;0.70;;
71435;SDS011;59251;51.326;12.370;2022-08-06T15:11:38;3.93;;;0.50;;
71435;SDS011;59251;51.326;12.370;2022-08-06T15:14:03;3.70;;;0.60;;
71435;SDS011;59251;51.326;12.370;2022-08-06T15:16:29;3.77;;;0.60;;
71435;SDS011;59251;51.326;12.370;2022-08-06T15:18:55;4.50;;;0.60;;
71435;SDS011;59251;51.326;12.370;2022-08-06T15:21:20;4.40;;;0.60;;
71435;SDS011;59251;51.326;12.370;2022-08-06T15:23:46;3.83;;;0.70;;
71435;SDS011;59251;51.326;12.370;2022-08-06T15:26:12;3.20;;;0.50;;
71435;SDS011;59251;51.326;12.370;2022-08-06T15:28:38;4.85;;;0.65;;
71435;SDS011;59251;51.326;12.370;2022-08-06T15:31:03;4.63;;;0.83;;
71435;SDS011;59251;51.326;12.370;2022-08-06T15:33:29;3.50;;;0.50;;
71435;SDS011;59251;51.326;12.370;2022-08-06T15:35:55;3.60;;;0.60;;
71435;SDS011;59251;51.326;12.370;2022-08-06T15:38:21;4.07;;;0.60;;
71435;SDS011;59251;51.326;12.370;2022-08-06T15:40:46;5.75;;;0.63;;
71435;SDS011;59251;51.326;12.370;2022-08-06T15:43:12;4.30;;;0.70;;
71435;SDS011;59251;51.326;12.370;2022-08-06T15:45:37;4.77;;;0.57;;
71435;SDS011;59251;51.326;12.370;2022-08-06T15:48:03;5.77;;;0.90;;
71435;SDS011;59251;51.326;12.370;2022-08-06T15:50:28;3.50;;;0.65;;
71435;SDS011;59251;51.326;12.370;2022-08-06T15:52:54;3.90;;;0.60;;
71435;SDS011;59251;51.326;12.370;2022-08-06T15:55:19;3.40;;;0.50;;
71435;SDS011;59251;51.326;12.370;2022-08-06T15:57:45;5.15;;;0.70;;
71435;SDS011;59251;51.326;12.370;2022-08-06T16:00:13;5.03;;;0.50;;
71435;SDS011;59251;51.326;12.370;2022-08-06T16:02:40;3.70;;;0.50;;
71435;SDS011;59251;51.326;12.370;2022-08-06T16:05:05;2.87;;;0.40;;